Latest Weather Observations for Bellambi

IDN60901

Issued at 1:01 pm EDT Saturday 21 January 2017 (issued every 10 minutes, with the page automatically refreshed every 10 minutes)

About weather observations | Map of Sydney area stations | Latest observations for Sydney area | Other Formats
Station Details ID: 068228 Name: BELLAMBI AWS Lat: -34.37 Lon: 150.93 Height: 10.0 m
Data from the previous 72 hours. | See also: Recent months at Bellambi
Date/Time
EDT
Temp
°C
App
Temp
°C
Dew
Point
°C
Rel
Hum
%
Delta-T
°C
Wind Press
QNH
hPa
Press
MSL
hPa
Rain since
9am
mm
Dir  Spd
km/h
Gust
km/h
Spd
kts
Gust
kts
21/12:30pm 22.6 19.0 14.2 59 4.9 SSE 26 32 14 17 - - 0.0
21/12:00pm 22.9 19.6 13.9 57 5.3 SSE 24 30 13 16 - - 0.0
21/11:30am 22.5 18.2 11.9 51 6.0 SSE 26 33 14 18 - - 0.0
21/11:00am 22.5 18.6 13.3 56 5.3 SSE 26 30 14 16 - - 0.0
21/10:30am 22.1 18.1 12.9 56 5.3 SSE 26 32 14 17 - - 0.0
21/10:00am 21.8 17.6 12.4 55 5.3 S 26 32 14 17 - - 0.0
21/09:30am 21.7 16.8 11.4 52 5.7 S 28 35 15 19 - - 0.0
21/09:00am 21.3 16.8 11.3 53 5.5 S 26 32 14 17 - - 3.8
21/08:30am 20.9 16.5 11.8 56 5.1 SSW 26 33 14 18 - - 3.8
21/08:00am 20.8 17.9 12.2 58 4.8 SSW 19 24 10 13 - - 3.8
21/07:30am 20.8 17.9 12.2 58 4.8 SSW 19 24 10 13 - - 3.8
21/07:00am 20.3 18.4 11.8 58 4.7 SW 13 17 7 9 - - 3.8
21/06:30am 19.9 18.6 11.4 58 4.7 SW 9 15 5 8 - - 3.8
21/06:00am 20.1 17.0 12.1 60 4.5 SSW 20 24 11 13 - - 3.8
21/05:30am 20.1 17.0 12.3 61 4.4 SSW 20 28 11 15 - - 3.8
21/05:00am 20.4 16.8 12.9 62 4.3 SSW 24 30 13 16 - - 3.8
21/04:30am 20.4 17.9 13.6 65 3.9 SSW 19 22 10 12 - - 3.8
21/04:00am 20.7 16.5 13.6 64 4.1 SSW 28 32 15 17 - - 3.8
21/03:30am 20.8 15.1 15.1 70 3.4 S 39 46 21 25 - - 3.8
21/03:00am 20.9 14.7 14.8 68 3.6 S 41 48 22 26 - - 3.8
21/02:30am 21.0 14.5 15.1 69 3.5 S 43 52 23 28 - - 3.8
21/02:00am 21.3 14.6 13.5 61 4.5 SSW 41 50 22 27 - - 3.8
21/01:30am 21.6 14.6 13.8 61 4.5 SSW 43 56 23 30 - - 3.8
21/01:00am 21.7 15.0 14.6 64 4.2 S 43 54 23 29 - - 3.8
21/12:30am 21.7 15.3 14.4 63 4.3 SSW 41 50 22 27 - - 3.8
21/12:00am 21.8 15.1 14.7 64 4.2 S 43 54 23 29 - - 3.8
 
Date/Time
EDT
Temp
°C
App
Temp
°C
Dew
Point
°C
Rel
Hum
%
Delta-T
°C
Wind Press
QNH
hPa
Press
MSL
hPa
Rain since
9am
mm
Dir  Spd
km/h
Gust
km/h
Spd
kts
Gust
kts
20/11:43pm 21.9 16.7 15.5 67 3.8 S 37 54 20 29 - - 3.8
20/11:30pm 22.3 19.1 17.2 73 3.1 S 30 33 16 18 - - 3.8
20/11:00pm 22.2 19.9 17.6 75 2.8 SSW 26 35 14 19 - - 3.8
20/10:30pm 22.2 18.8 17.6 75 2.8 SSW 32 39 17 21 - - 3.8
20/10:00pm 21.9 19.5 18.3 80 2.2 SSW 28 37 15 20 - - 3.8
20/09:30pm 21.9 18.0 17.9 78 2.5 SSW 35 46 19 25 - - 3.8
20/09:00pm 22.1 17.0 18.7 81 2.1 SSW 43 56 23 30 - - 3.8
20/08:43pm 22.4 16.9 19.0 81 2.2 SSW 46 65 25 35 - - 3.8
20/08:30pm 22.8 16.7 19.4 81 2.2 SSW 50 65 27 35 - - 3.8
20/08:20pm 22.9 16.6 19.7 82 2.1 SSW 52 72 28 39 - - 3.8
20/08:16pm 23.1 16.9 19.9 82 2.1 S 52 72 28 39 - - 3.8
20/08:00pm 23.9 20.2 20.0 79 2.5 S 39 63 21 34 - - 3.8
20/07:58pm 24.0 21.4 19.9 78 2.6 SSW 33 63 18 34 - - 3.8
20/07:57pm 24.2 21.7 19.7 76 2.9 SSW 32 50 17 27 - - 3.8
20/07:51pm 26.0 25.1 19.9 69 4.0 W 24 50 13 27 - - 3.8
20/07:30pm 27.5 29.2 22.4 73 3.4 WNW 17 28 9 15 - - 3.8
20/07:00pm 24.9 27.5 22.6 87 1.5 NNE 13 17 7 9 - - 3.8
20/06:30pm 25.7 30.2 23.0 85 1.8 NW 4 7 2 4 - - 3.8
20/06:00pm 24.8 26.5 21.7 83 2.1 NNW 15 19 8 10 - - 2.8
20/05:30pm 25.0 24.7 21.1 79 2.6 NE 24 28 13 15 - - 2.8
20/05:00pm 24.8 25.8 21.1 80 2.4 NNE 17 24 9 13 - - 2.8
20/04:30pm 24.6 24.6 20.9 80 2.4 NNE 22 30 12 16 - - 2.8
20/04:00pm 24.3 22.6 20.6 80 2.4 NE 30 35 16 19 - - 2.8
20/03:30pm 24.5 24.8 20.8 80 2.4 NE 20 24 11 13 - - 2.8
20/03:00pm 25.7 26.5 20.7 74 3.3 N 17 24 9 13 - - 2.8
20/02:30pm 25.9 26.2 21.6 77 2.9 NNW 22 32 12 17 - - 2.8
20/02:00pm 24.0 24.2 20.5 81 2.3 NE 20 24 11 13 - - 2.8
20/01:30pm 23.6 23.9 20.3 82 2.1 NE 19 22 10 12 - - 2.8
20/01:00pm 22.3 20.8 19.5 84 1.8 NE 26 37 14 20 - - 2.8
20/12:30pm 21.4 20.9 19.1 87 1.5 NE 20 28 11 15 - - 2.8
20/12:00pm 21.2 20.7 18.6 85 1.6 NNE 19 24 10 13 - - 2.2
20/11:30am 20.9 21.0 17.5 81 2.1 N 13 19 7 10 - - 1.8
20/11:00am 21.8 21.5 17.4 76 2.7 N 15 22 8 12 - - 0.0
20/10:30am 22.2 21.7 17.8 76 2.7 NNE 17 24 9 13 - - 0.0
20/10:00am 22.2 22.4 17.6 75 2.8 NNE 13 17 7 9 - - 0.0
20/09:30am 22.1 20.2 16.8 72 3.2 NNE 22 32 12 17 - - 0.0
20/09:00am 21.9 18.9 16.8 73 3.1 NNE 28 37 15 20 - - 0.0
20/08:30am 21.9 20.0 16.6 72 3.2 N 22 30 12 16 - - 0.0
20/08:00am 21.6 19.4 16.8 74 2.9 NNE 24 32 13 17 - - 0.0
20/07:30am 21.3 19.4 16.7 75 2.8 N 22 32 12 17 - - 0.0
20/07:00am 21.2 18.5 16.6 75 2.8 N 26 35 14 19 - - 0.0
20/06:30am 21.2 17.8 16.8 76 2.7 N 30 33 16 18 - - 0.0
20/06:00am 21.1 18.9 16.9 77 2.6 N 24 30 13 16 - - 0.0
20/05:30am 21.0 18.6 16.4 75 2.8 N 24 28 13 15 - - 0.0
20/05:00am 20.9 19.4 16.3 75 2.8 N 19 22 10 12 - - 0.0
20/04:30am 21.1 18.7 16.5 75 2.8 N 24 33 13 18 - - 0.0
20/04:00am 21.2 19.4 17.0 77 2.6 N 22 28 12 15 - - 0.0
20/03:30am 20.9 19.0 16.7 77 2.5 N 22 28 12 15 - - 0.0
20/03:00am 20.8 19.4 17.0 79 2.3 N 20 24 11 13 - - 0.0
20/02:30am 20.6 19.3 17.2 81 2.1 NNE 20 26 11 14 - - 0.0
20/02:00am 20.5 19.1 16.9 80 2.2 N 20 24 11 13 - - 0.0
20/01:30am 20.6 18.3 16.6 78 2.4 NNE 24 32 13 17 - - 0.0
20/01:00am 21.1 18.4 16.7 76 2.7 NNE 26 32 14 17 - - 0.0
20/12:30am 21.2 19.5 16.2 73 3.0 NNE 20 30 11 16 - - 0.0
20/12:00am 20.7 19.7 15.5 72 3.1 N 15 17 8 9 - - 0.0
 
Date/Time
EDT
Temp
°C
App
Temp
°C
Dew
Point
°C
Rel
Hum
%
Delta-T
°C
Wind Press
QNH
hPa
Press
MSL
hPa
Rain since
9am
mm
Dir  Spd
km/h
Gust
km/h
Spd
kts
Gust
kts
19/11:30pm 20.6 19.5 15.4 72 3.1 NW 15 19 8 10 - - 0.0
19/11:00pm 20.9 18.2 15.7 72 3.1 N 24 30 13 16 - - 0.0
19/10:30pm 21.0 18.7 15.8 72 3.1 N 22 28 12 15 - - 0.0
19/10:00pm 20.7 17.9 15.3 71 3.2 N 24 32 13 17 - - 0.0
19/09:30pm 21.3 17.8 15.6 70 3.4 NNE 28 35 15 19 - - 0.0
19/09:00pm 21.2 17.5 15.1 68 3.6 NNE 28 37 15 20 - - 0.0
19/08:30pm 21.2 17.6 15.3 69 3.5 NNE 28 37 15 20 - - 0.0
19/08:00pm 21.3 18.5 15.4 69 3.5 NNE 24 32 13 17 - - 0.0
19/07:30pm 21.3 18.4 15.2 68 3.6 NNE 24 30 13 16 - - 0.0
19/07:00pm 21.3 18.3 14.9 67 3.8 NNE 24 32 13 17 - - 0.0
19/06:30pm 21.5 19.3 14.9 66 3.9 NNE 20 28 11 15 - - 0.0
19/06:00pm 21.6 18.9 14.5 64 4.2 NNE 22 30 12 16 - - 0.0
19/05:30pm 21.9 19.5 14.5 63 4.3 NNE 20 24 11 13 - - 0.0
19/05:00pm 21.9 19.7 14.8 64 4.2 NNE 20 26 11 14 - - 0.0
19/04:30pm 22.4 19.9 14.0 59 4.9 NNE 20 24 11 13 - - 0.0
19/04:00pm 23.2 21.0 14.5 58 5.1 NNE 19 24 10 13 - - 0.0
19/03:30pm 22.9 20.9 13.9 57 5.3 NNE 17 20 9 11 - - 0.0
19/03:00pm 22.2 20.3 14.1 60 4.7 NNE 17 22 9 12 - - 0.0
19/02:30pm 22.5 21.2 13.6 57 5.2 NNE 13 19 7 10 - - 0.0
19/02:00pm 22.7 21.8 14.8 61 4.7 NNE 13 19 7 10 - - 0.0
19/01:30pm 21.5 20.4 14.4 64 4.2 N 13 17 7 9 - - 0.0
19/01:00pm 21.4 20.2 14.1 63 4.2 NE 13 17 7 9 - - 0.0
19/12:30pm 21.8 20.4 14.4 63 4.3 NE 15 19 8 10 - - 0.0
19/12:00pm 21.2 18.9 14.1 64 4.1 NE 19 28 10 15 - - 0.0
19/11:30am 21.4 20.7 13.3 60 4.6 ENE 9 17 5 9 - - 0.0
19/11:00am 20.8 21.5 13.3 62 4.3 SW 2 7 1 4 - - 0.0
19/10:30am 20.3 19.3 13.5 65 3.9 SE 11 17 6 9 - - 0.0
19/10:00am 20.5 19.0 13.2 63 4.2 SE 13 20 7 11 - - 0.0
19/09:30am 20.3 18.5 13.3 64 4.0 SSE 15 24 8 13 - - 0.0
19/09:00am 20.1 18.5 14.0 68 3.5 S 15 24 8 13 - - 0.0
19/08:30am 19.5 17.7 13.4 68 3.5 SW 15 20 8 11 - - 0.0
19/08:00am 19.4 17.2 13.3 68 3.5 SW 17 24 9 13 - - 0.0
19/07:30am 19.6 18.1 13.1 66 3.7 SW 13 19 7 10 - - 0.0
19/07:00am 19.8 18.4 13.3 66 3.7 SSW 13 19 7 10 - - 0.0
19/06:30am 19.4 18.2 12.7 65 3.8 WSW 11 15 6 8 - - 0.0
19/06:00am 19.2 17.9 12.5 65 3.7 SW 11 17 6 9 - - 0.0
19/05:30am 19.3 17.6 12.6 65 3.8 SW 13 19 7 10 - - 0.0
19/05:00am 19.4 17.4 12.7 65 3.8 WSW 15 20 8 11 - - 0.0
19/04:30am 19.2 17.3 12.9 67 3.6 SW 15 20 8 11 - - 0.0
19/04:00am 19.1 17.3 13.3 69 3.3 SW 15 20 8 11 - - 0.0
19/03:30am 19.1 17.3 13.3 69 3.3 WSW 15 19 8 10 - - 0.0
19/03:00am 20.3 16.7 13.0 63 4.1 S 24 30 13 16 - - 0.0
19/02:30am 20.0 16.4 13.0 64 4.0 S 24 32 13 17 - - 0.0
19/02:00am 19.6 15.3 13.3 67 3.6 S 28 35 15 19 - - 0.0
19/01:30am 20.0 16.5 14.6 71 3.1 S 26 35 14 19 - - 0.0
19/01:00am 19.6 16.2 13.8 69 3.3 SSE 24 33 13 18 - - 0.0
19/12:40am 19.5 15.6 14.3 72 3.0 S 28 39 15 21 - - 0.0
19/12:30am 20.0 17.9 14.6 71 3.1 SSE 19 28 10 15 - - 0.0
19/12:00am 19.5 15.8 15.0 75 2.6 SE 28 35 15 19 - - 0.0
 
Date/Time
EDT
Temp
°C
App
Temp
°C
Dew
Point
°C
Rel
Hum
%
Delta-T
°C
Wind Press
QNH
hPa
Press
MSL
hPa
Rain since
9am
mm
Dir  Spd
km/h
Gust
km/h
Spd
kts
Gust
kts
18/11:30pm 20.1 16.0 14.9 72 3.0 SSE 30 41 16 22 - - 0.0
18/11:00pm 20.4 16.1 14.5 69 3.4 SSE 30 37 16 20 - - 0.0
18/10:30pm 20.8 16.7 14.9 69 3.5 SSE 30 41 16 22 - - 0.0
18/10:00pm 20.6 16.4 15.6 73 3.0 S 32 43 17 23 - - 0.0
18/09:30pm 20.5 16.4 15.9 75 2.7 S 32 39 17 21 - - 0.0
18/09:00pm 20.5 17.4 16.5 78 2.4 S 28 35 15 19 - - 0.0
18/08:30pm 20.4 16.6 16.6 79 2.3 S 32 41 17 22 - - 0.0
18/08:00pm 20.7 16.7 16.7 78 2.4 S 33 41 18 22 - - 0.0
18/07:30pm 20.7 15.6 16.7 78 2.4 S 39 46 21 25 - - 0.0
18/07:00pm 21.0 16.7 16.8 77 2.6 SSE 35 48 19 26 - - 0.0
18/06:30pm 21.5 17.3 17.1 76 2.7 SSE 35 48 19 26 - - 0.0
18/06:00pm 21.8 16.5 17.2 75 2.8 S 41 50 22 27 - - 0.0
18/05:30pm 21.9 17.2 17.7 77 2.6 S 39 52 21 28 - - 0.0
18/05:00pm 22.7 19.1 18.5 77 2.6 S 35 48 19 26 - - 0.0
18/04:30pm 23.0 19.6 18.1 74 3.1 S 33 41 18 22 - - 0.0
18/04:00pm 23.8 20.8 19.1 75 3.0 S 33 41 18 22 - - 0.0
18/03:30pm 24.4 21.6 19.0 72 3.4 S 32 41 17 22 - - 0.0
18/03:00pm 25.6 24.6 19.7 70 3.8 S 24 37 13 20 - - 0.0
18/02:30pm 24.9 24.0 19.1 70 3.7 S 22 26 12 14 - - 0.0
18/02:00pm 25.4 25.1 19.5 70 3.8 S 20 24 11 13 - - 0.0
18/01:30pm 25.9 25.7 19.3 67 4.2 S 19 24 10 13 - - 0.0

Latest Capital City Observations: Canberra | Sydney | Melbourne | Brisbane | Adelaide | Perth | Hobart | Darwin

Other Formats:

Comma delimited format used in spreadsheet applications
http://www.bom.gov.au/fwo/IDN60901/IDN60901.94749.axf

JavaScript Object Notation format (JSON) in row-major order
http://www.bom.gov.au/fwo/IDN60901/IDN60901.94749.json